createdAt,value
2018-11-23T00:00:29.847Z,101.53
2018-11-23T00:02:59.601Z,102.85
2018-11-23T00:05:28.671Z,99.07
2018-11-23T00:07:58.790Z,105.22
2018-11-23T00:10:29.322Z,107.83
2018-11-23T00:12:58.561Z,106.55
2018-11-23T00:15:27.999Z,88.82
2018-11-23T00:17:57.119Z,97.10
2018-11-23T00:20:27.546Z,94.52
2018-11-23T00:22:56.702Z,95.67
2018-11-23T00:25:26.568Z,87.70
2018-11-23T00:27:56.287Z,82.45
2018-11-23T00:30:26.599Z,86.15
2018-11-23T00:32:55.946Z,84.77
2018-11-23T00:35:26.402Z,82.75
2018-11-23T00:37:55.943Z,85.85
2018-11-23T00:40:26.371Z,106.43
2018-11-23T00:42:55.737Z,87.42
2018-11-23T00:45:25.267Z,73.22
2018-11-23T00:47:55.228Z,78.92
2018-11-23T00:50:25.216Z,89.80
2018-11-23T00:52:55.283Z,83.62
2018-11-23T00:55:25.238Z,75.92
2018-11-23T00:57:54.271Z,76.12
2018-11-23T01:00:30.806Z,72.97
2018-11-23T01:03:00.731Z,67.32
2018-11-23T01:05:29.697Z,57.50
2018-11-23T01:07:59.111Z,48.35
2018-11-23T01:10:29.035Z,45.08
2018-11-23T01:12:58.697Z,41.45
2018-11-23T01:15:28.197Z,43.00
2018-11-23T01:17:57.460Z,43.63
2018-11-23T01:20:27.343Z,49.45
2018-11-23T01:22:57.412Z,47.43
2018-11-23T01:25:27.423Z,39.03
2018-11-23T01:27:56.923Z,39.38
2018-11-23T01:30:28.571Z,46.83
2018-11-23T01:32:57.668Z,35.33
2018-11-23T01:35:26.866Z,42.78
2018-11-23T01:37:56.535Z,37.13
2018-11-23T01:40:28.210Z,32.28
2018-11-23T01:42:57.999Z,32.50
2018-11-23T01:45:27.254Z,32.20
2018-11-23T01:47:56.355Z,40.75
2018-11-23T01:50:28.875Z,35.30
2018-11-23T01:52:58.274Z,38.88
2018-11-23T01:55:27.866Z,37.30
2018-11-23T01:57:57.463Z,35.85
2018-11-23T02:00:27.787Z,37.10
2018-11-23T02:02:57.579Z,38.05
2018-11-23T02:05:26.622Z,37.33
2018-11-23T02:07:55.928Z,33.10
2018-11-23T02:10:25.623Z,32.17
2018-11-23T02:12:54.832Z,34.67
2018-11-23T02:15:24.107Z,34.92
2018-11-23T02:17:53.300Z,35.78
2018-11-23T02:20:23.003Z,34.58
2018-11-23T02:22:52.252Z,38.05
2018-11-23T02:25:21.839Z,30.57
2018-11-23T02:27:50.946Z,48.08
2018-11-23T02:30:22.611Z,40.43
2018-11-23T02:32:51.740Z,37.70
2018-11-23T02:35:21.016Z,34.60
2018-11-23T02:37:50.615Z,32.93
2018-11-23T02:40:20.604Z,42.25
2018-11-23T02:42:49.903Z,37.80
2018-11-23T02:45:20.458Z,37.10
2018-11-23T02:47:49.888Z,37.42
2018-11-23T02:50:19.179Z,35.40
2018-11-23T02:52:48.896Z,37.95
2018-11-23T02:55:19.075Z,41.00
2018-11-23T02:57:48.200Z,37.67
2018-11-23T03:00:19.295Z,38.80
2018-11-23T03:02:48.655Z,39.30
2018-11-23T03:05:19.362Z,38.85
2018-11-23T03:07:48.897Z,39.38
2018-11-23T03:10:18.423Z,39.98
2018-11-23T03:12:48.382Z,47.60
2018-11-23T03:15:19.522Z,45.40
2018-11-23T03:17:49.115Z,44.48
2018-11-23T03:20:19.523Z,50.05
2018-11-23T03:22:48.801Z,45.40
2018-11-23T03:25:18.107Z,50.83
2018-11-23T03:27:47.371Z,45.03
2018-11-23T03:30:22.125Z,45.20
2018-11-23T03:32:52.130Z,33.80
2018-11-23T03:35:22.149Z,43.55
2018-11-23T03:37:51.496Z,39.78
2018-11-23T03:40:20.979Z,41.45
2018-11-23T03:42:50.351Z,48.20
2018-11-23T03:45:19.565Z,39.88
2018-11-23T03:47:48.740Z,43.05
2018-11-23T03:50:18.385Z,35.85
2018-11-23T03:52:47.818Z,41.13
2018-11-23T03:55:16.761Z,45.60
2018-11-23T03:57:46.212Z,60.75
2018-11-23T04:00:20.477Z,49.55
2018-11-23T04:02:50.071Z,114.22
2018-11-23T04:05:19.487Z,104.30
2018-11-23T04:07:48.770Z,60.50
2018-11-23T04:10:18.578Z,61.10
2018-11-23T04:12:47.913Z,48.68
2018-11-23T04:15:17.218Z,49.48
2018-11-23T04:17:46.655Z,41.97
2018-11-23T04:20:17.034Z,48.45
2018-11-23T04:22:46.479Z,55.12
2018-11-23T04:25:16.267Z,54.70
2018-11-23T04:27:45.493Z,57.70
2018-11-23T04:30:15.991Z,49.58
2018-11-23T04:32:45.802Z,42.83
2018-11-23T04:35:16.002Z,47.45
2018-11-23T04:37:45.935Z,44.15
2018-11-23T04:40:15.886Z,43.05
2018-11-23T04:42:45.439Z,49.98
2018-11-23T04:45:14.971Z,46.48
2018-11-23T04:47:44.175Z,58.63
2018-11-23T04:50:15.052Z,48.80
2018-11-23T04:52:44.535Z,46.10
2018-11-23T04:55:13.822Z,58.15
2018-11-23T04:57:43.876Z,54.95
2018-11-23T05:00:15.002Z,52.50
2018-11-23T05:02:44.903Z,59.05
2018-11-23T05:05:14.495Z,47.45
2018-11-23T05:07:44.965Z,47.88
2018-11-23T05:10:15.259Z,52.13
2018-11-23T05:12:44.502Z,57.30
2018-11-23T05:15:15.122Z,57.62
2018-11-23T05:17:44.642Z,54.45
2018-11-23T05:20:14.539Z,46.05
2018-11-23T05:22:43.943Z,49.27
2018-11-23T05:25:14.545Z,49.23
2018-11-23T05:27:43.763Z,49.13
2018-11-23T05:30:15.244Z,61.02
2018-11-23T05:32:44.827Z,64.45
2018-11-23T05:35:15.103Z,66.62
2018-11-23T05:37:44.458Z,60.10
2018-11-23T05:40:15.737Z,60.33
2018-11-23T05:42:45.091Z,66.65
2018-11-23T05:45:17.249Z,59.83
2018-11-23T05:47:46.519Z,56.00
2018-11-23T05:50:24.654Z,54.42
2018-11-23T05:52:54.080Z,47.85
2018-11-23T05:55:23.200Z,49.05
2018-11-23T05:57:52.558Z,43.50
2018-11-23T06:00:27.279Z,51.50
2018-11-23T06:02:56.691Z,52.80
2018-11-23T06:05:26.118Z,52.27
2018-11-23T06:07:55.276Z,57.50
2018-11-23T06:10:24.920Z,64.22
2018-11-23T06:12:54.014Z,67.53
2018-11-23T06:15:24.284Z,67.82
2018-11-23T06:17:53.558Z,75.22
2018-11-23T06:20:24.294Z,69.55
2018-11-23T06:22:54.115Z,64.70
2018-11-23T06:25:32.515Z,63.42
2018-11-23T06:28:01.907Z,70.75
2018-11-23T06:30:31.172Z,65.55
2018-11-23T06:33:11.330Z,66.10
2018-11-23T06:35:40.564Z,68.12
2018-11-23T06:38:09.836Z,59.10
2018-11-23T06:40:39.283Z,67.80
2018-11-23T06:43:08.546Z,67.58
2018-11-23T06:45:42.961Z,66.55
2018-11-23T06:48:12.461Z,65.42
2018-11-23T06:50:41.563Z,72.70
2018-11-23T06:53:10.728Z,72.17
2018-11-23T06:55:39.962Z,74.40
2018-11-23T06:58:09.231Z,62.55
2018-11-23T07:00:38.629Z,64.42
2018-11-23T07:03:07.827Z,58.02
2018-11-23T07:05:37.065Z,52.53
2018-11-23T07:08:06.663Z,48.75
2018-11-23T07:10:35.865Z,50.55
2018-11-23T07:13:05.215Z,63.55
2018-11-23T07:15:34.387Z,61.80
2018-11-23T07:18:03.576Z,60.85
2018-11-23T07:20:33.378Z,59.10
2018-11-23T07:23:02.603Z,57.78
2018-11-23T07:25:31.987Z,54.48
2018-11-23T07:28:01.656Z,58.13
2018-11-23T07:30:31.179Z,59.45
2018-11-23T07:33:00.442Z,64.82
2018-11-23T07:35:29.971Z,63.60
2018-11-23T07:37:59.332Z,71.05
2018-11-23T07:40:41.214Z,72.53
2018-11-23T07:43:10.381Z,65.35
2018-11-23T07:45:39.610Z,76.33
2018-11-23T07:48:09.539Z,74.65
2018-11-23T07:50:39.031Z,76.15
2018-11-23T07:53:08.339Z,80.95
2018-11-23T07:55:37.341Z,77.08
2018-11-23T07:58:07.575Z,78.90
2018-11-23T08:00:37.190Z,82.62
2018-11-23T08:03:06.812Z,80.00
2018-11-23T08:05:35.666Z,65.00
2018-11-23T08:08:05.075Z,66.28
2018-11-23T08:10:33.555Z,64.62
2018-11-23T08:13:02.961Z,73.70
2018-11-23T08:15:32.382Z,56.20
2018-11-23T08:18:01.927Z,57.00
2018-11-23T08:20:31.149Z,56.40
2018-11-23T08:23:00.568Z,66.72
2018-11-23T08:25:29.929Z,61.18
2018-11-23T08:27:59.087Z,61.28
2018-11-23T08:30:29.684Z,69.60
2018-11-23T08:32:59.119Z,60.55
2018-11-23T08:35:28.411Z,70.70
2018-11-23T08:37:57.819Z,69.25
2018-11-23T08:40:27.870Z,61.40
2018-11-23T08:42:58.320Z,59.67
2018-11-23T08:45:28.015Z,59.83
2018-11-23T08:47:57.189Z,69.03
2018-11-23T08:50:27.968Z,72.87
2018-11-23T08:52:57.318Z,81.35
2018-11-23T08:55:27.022Z,73.28
2018-11-23T08:57:56.376Z,75.90
2018-11-23T09:00:26.805Z,76.37
2018-11-23T09:02:57.746Z,76.95
2018-11-23T09:05:26.973Z,74.47
2018-11-23T09:07:56.871Z,73.47
2018-11-23T09:10:27.597Z,66.02
2018-11-23T09:12:58.270Z,73.12
2018-11-23T09:15:27.450Z,68.60
2018-11-23T09:17:56.726Z,77.78
2018-11-23T09:20:26.034Z,84.67
2018-11-23T09:22:55.209Z,83.55
2018-11-23T09:25:25.192Z,81.55
2018-11-23T09:27:54.706Z,67.27
2018-11-23T09:30:25.474Z,79.75
2018-11-23T09:32:55.567Z,78.35
2018-11-23T09:35:24.878Z,73.50
2018-11-23T09:37:54.275Z,76.17
2018-11-23T09:40:25.008Z,89.35
2018-11-23T09:42:54.865Z,77.40
2018-11-23T09:45:27.710Z,76.15
2018-11-23T09:47:58.497Z,68.85
2018-11-23T09:50:28.256Z,67.78
2018-11-23T09:52:58.927Z,62.75
2018-11-23T09:55:29.104Z,74.22
2018-11-23T09:57:58.508Z,62.30
2018-11-23T10:00:35.796Z,69.80
2018-11-23T10:03:05.639Z,63.00
2018-11-23T10:08:06.242Z,68.45
2018-11-23T10:10:35.671Z,68.45
2018-11-23T10:13:04.967Z,68.02
2018-11-23T10:15:34.546Z,68.80
2018-11-23T10:18:03.779Z,62.23
2018-11-23T10:20:33.958Z,66.33
2018-11-23T10:23:03.107Z,63.25
2018-11-23T10:25:33.685Z,77.10
2018-11-23T10:28:03.044Z,72.22
2018-11-23T10:30:33.518Z,76.82
2018-11-23T10:33:04.199Z,84.07
2018-11-23T10:35:33.419Z,75.28
2018-11-23T10:38:03.857Z,67.87
2018-11-23T10:40:35.435Z,72.95
2018-11-23T10:43:06.194Z,71.00
2018-11-23T10:45:35.982Z,78.25
2018-11-23T10:48:06.221Z,75.55
2018-11-23T10:50:37.277Z,75.28
2018-11-23T10:53:06.678Z,75.78
2018-11-23T10:55:36.622Z,78.35
2018-11-23T10:58:06.429Z,77.87
2018-11-23T11:00:40.655Z,95.35
2018-11-23T11:03:14.328Z,85.62
2018-11-23T11:05:48.559Z,83.12
2018-11-23T11:08:18.017Z,78.85
2018-11-23T11:10:47.170Z,91.40
2018-11-23T11:13:16.331Z,83.80
2018-11-23T11:15:45.800Z,84.25
2018-11-23T11:18:14.976Z,81.90
2018-11-23T11:20:44.192Z,74.40
2018-11-23T11:23:13.828Z,69.90
2018-11-23T11:25:42.987Z,78.65
2018-11-23T11:28:12.152Z,66.55
2018-11-23T11:30:41.744Z,82.82
2018-11-23T11:33:11.354Z,72.87
2018-11-23T11:35:40.575Z,69.95
2018-11-23T11:38:09.696Z,75.57
2018-11-23T11:40:39.247Z,71.10
2018-11-23T11:43:08.573Z,75.15
2018-11-23T11:45:37.559Z,80.17
2018-11-23T11:48:06.763Z,69.10
2018-11-23T11:50:35.969Z,82.70
2018-11-23T11:53:05.195Z,81.32
2018-11-23T11:55:34.590Z,86.60
2018-11-23T11:58:03.775Z,77.42
2018-11-23T12:00:32.983Z,81.35
2018-11-23T12:03:02.224Z,75.08
2018-11-23T12:05:31.391Z,77.75
2018-11-23T12:08:00.692Z,82.60
2018-11-23T12:10:30.187Z,80.62
2018-11-23T12:12:59.309Z,78.67
2018-11-23T12:15:28.522Z,83.62
2018-11-23T12:17:57.735Z,89.60
2018-11-23T12:20:26.972Z,89.17
2018-11-23T12:22:56.158Z,99.92
2018-11-23T12:25:25.812Z,71.55
2018-11-23T12:27:55.104Z,86.32
2018-11-23T12:30:24.476Z,78.40
2018-11-23T12:32:54.669Z,79.42
2018-11-23T12:35:24.448Z,76.82
2018-11-23T12:37:53.613Z,86.57
2018-11-23T12:40:23.593Z,81.25
2018-11-23T12:42:52.879Z,82.35
2018-11-23T12:45:23.152Z,82.30
2018-11-23T12:47:52.787Z,79.17
2018-11-23T12:50:23.192Z,83.97
2018-11-23T12:52:52.435Z,88.35
2018-11-23T12:55:22.149Z,94.75
2018-11-23T12:57:51.447Z,90.30
2018-11-23T13:00:25.567Z,82.37
2018-11-23T13:02:58.165Z,82.08
2018-11-23T13:05:32.295Z,84.22
2018-11-23T13:08:02.775Z,82.70
2018-11-23T13:10:32.125Z,87.40
2018-11-23T13:13:02.189Z,83.55
2018-11-23T13:15:31.531Z,85.25
2018-11-23T13:18:01.031Z,89.37
2018-11-23T13:20:30.563Z,82.62
2018-11-23T13:23:00.057Z,93.67
2018-11-23T13:25:30.780Z,85.47
2018-11-23T13:28:00.506Z,79.77
2018-11-23T13:30:31.138Z,77.70
2018-11-23T13:33:00.391Z,87.42
2018-11-23T13:35:30.010Z,84.55
2018-11-23T13:37:59.327Z,75.70
2018-11-23T13:40:29.314Z,82.75
2018-11-23T13:42:59.648Z,83.75
2018-11-23T13:45:30.232Z,86.22
2018-11-23T13:47:59.508Z,84.62
2018-11-23T13:50:29.391Z,93.55
2018-11-23T13:53:00.022Z,88.80
2018-11-23T13:55:29.123Z,76.07
2018-11-23T13:57:58.661Z,88.20
2018-11-23T14:00:29.076Z,90.42
2018-11-23T14:02:57.974Z,96.92
2018-11-23T14:05:28.836Z,100.02
2018-11-23T14:07:59.171Z,85.83
2018-11-23T14:10:29.176Z,89.83
2018-11-23T14:12:58.459Z,86.05
2018-11-23T14:15:28.805Z,78.72
2018-11-23T14:17:59.368Z,82.35
2018-11-23T14:20:28.687Z,85.67
2018-11-23T14:22:58.017Z,83.20
2018-11-23T14:25:28.688Z,75.83
2018-11-23T14:27:58.221Z,82.50
2018-11-23T14:30:28.767Z,78.80
2018-11-23T14:32:58.559Z,80.50
2018-11-23T14:35:29.228Z,75.47
2018-11-23T14:37:59.380Z,87.60
2018-11-23T14:40:28.668Z,76.72
2018-11-23T14:42:58.200Z,78.02
2018-11-23T14:45:29.752Z,75.32
2018-11-23T14:48:00.267Z,76.40
2018-11-23T14:50:30.930Z,84.45
2018-11-23T14:53:00.616Z,81.12
2018-11-23T14:55:31.319Z,80.75
2018-11-23T14:58:02.899Z,81.92
2018-11-23T15:00:35.719Z,83.58
2018-11-23T15:03:06.251Z,86.00
2018-11-23T15:05:35.854Z,83.58
2018-11-23T15:08:05.441Z,75.30
2018-11-23T15:10:36.718Z,83.67
2018-11-23T15:13:06.594Z,87.50
2018-11-23T15:15:41.326Z,88.55
2018-11-23T15:18:11.104Z,96.57
2018-11-23T15:20:44.878Z,94.30
2018-11-23T15:23:18.772Z,106.85
2018-11-23T15:25:52.167Z,80.57
2018-11-23T15:28:21.471Z,72.05
2018-11-23T15:30:52.748Z,72.15
2018-11-23T15:33:22.402Z,69.45
2018-11-23T15:35:52.049Z,72.35
2018-11-23T15:38:22.965Z,73.30
2018-11-23T15:40:52.558Z,79.05
2018-11-23T15:43:22.252Z,75.85
2018-11-23T15:45:51.758Z,68.37
2018-11-23T15:48:21.004Z,71.12
2018-11-23T15:50:50.434Z,74.05
2018-11-23T15:53:19.735Z,54.70
2018-11-23T15:55:53.591Z,66.00
2018-11-23T15:58:26.783Z,46.18
2018-11-23T16:00:56.124Z,43.95
2018-11-23T16:03:25.304Z,52.40
2018-11-23T16:05:54.534Z,51.25
2018-11-23T16:08:23.615Z,52.10
2018-11-23T16:10:53.337Z,56.85
2018-11-23T16:13:22.703Z,49.35
2018-11-23T16:15:52.255Z,53.70
2018-11-23T16:18:21.599Z,62.20
2018-11-23T16:20:50.906Z,57.30
2018-11-23T16:23:21.573Z,58.48
2018-11-23T16:25:51.560Z,57.38
2018-11-23T16:28:20.667Z,55.10
2018-11-23T16:30:50.834Z,58.17
2018-11-23T16:33:21.479Z,53.17
2018-11-23T16:35:50.723Z,67.30
2018-11-23T16:38:21.839Z,55.95
2018-11-23T16:40:52.790Z,61.77
2018-11-23T16:43:21.887Z,66.92
2018-11-23T16:45:52.779Z,58.65
2018-11-23T16:48:23.149Z,57.73
2018-11-23T16:50:52.396Z,61.15
2018-11-23T16:53:26.802Z,64.67
2018-11-23T16:55:56.184Z,60.28
2018-11-23T16:58:26.551Z,61.15
2018-11-23T17:00:56.190Z,57.55
2018-11-23T17:03:25.425Z,65.25
2018-11-23T17:05:56.079Z,68.30
2018-11-23T17:08:25.384Z,81.08
2018-11-23T17:10:54.568Z,88.33
2018-11-23T17:13:23.846Z,90.42
2018-11-23T17:15:53.362Z,94.32
2018-11-23T17:18:22.667Z,96.35
2018-11-23T17:20:51.547Z,126.78
2018-11-23T17:23:21.163Z,140.43
2018-11-23T17:25:50.473Z,139.92
2018-11-23T17:28:19.686Z,151.02
2018-11-23T17:30:48.867Z,138.30
2018-11-23T17:33:18.159Z,142.22
2018-11-23T17:35:47.331Z,146.45
2018-11-23T17:38:16.713Z,154.50
2018-11-23T17:40:45.869Z,145.80
2018-11-23T17:43:15.028Z,119.28
2018-11-23T17:45:44.476Z,114.47
2018-11-23T17:48:13.860Z,118.22
2018-11-23T17:50:43.218Z,115.95
2018-11-23T17:53:12.810Z,135.25
2018-11-23T17:55:42.084Z,145.47
2018-11-23T17:58:11.282Z,155.95
2018-11-23T18:00:40.854Z,142.65
2018-11-23T18:03:10.017Z,147.15
2018-11-23T18:05:39.098Z,148.32
2018-11-23T18:08:08.698Z,145.97
2018-11-23T18:10:37.910Z,140.70
2018-11-23T18:13:07.093Z,147.53
2018-11-23T18:15:37.013Z,156.97
2018-11-23T18:18:06.891Z,158.72
2018-11-23T18:20:36.239Z,165.35
2018-11-23T18:23:06.068Z,169.00
2018-11-23T18:25:36.897Z,155.43
2018-11-23T18:28:06.567Z,162.15
2018-11-23T18:30:35.983Z,162.53
2018-11-23T18:33:09.309Z,111.75
2018-11-23T18:35:38.556Z,110.70
2018-11-23T18:38:07.781Z,77.65
2018-11-23T18:40:37.862Z,78.47
2018-11-23T18:43:06.794Z,82.80
2018-11-23T18:45:36.091Z,72.90
2018-11-23T18:48:05.635Z,73.57
2018-11-23T18:50:34.906Z,73.33
2018-11-23T18:53:04.146Z,71.30
2018-11-23T18:55:33.521Z,70.22
2018-11-23T18:58:02.682Z,73.33
2018-11-23T19:00:31.778Z,68.55
2018-11-23T19:03:01.151Z,73.40
2018-11-23T19:05:30.416Z,72.78
2018-11-23T19:07:59.624Z,75.17
2018-11-23T19:10:29.220Z,86.63
2018-11-23T19:12:58.312Z,80.83
2018-11-23T19:15:27.615Z,80.45
2018-11-23T19:17:57.402Z,78.70
2018-11-23T19:20:26.538Z,72.42
2018-11-23T19:22:56.151Z,69.12
2018-11-23T19:25:25.675Z,68.02
2018-11-23T19:27:54.731Z,72.78
2018-11-23T19:30:28.818Z,73.37
2018-11-23T19:32:54.687Z,86.37
2018-11-23T19:35:24.088Z,79.87
2018-11-23T19:37:53.351Z,83.22
2018-11-23T19:40:22.583Z,117.50
2018-11-23T19:42:51.968Z,112.92
2018-11-23T19:45:21.366Z,110.10
2018-11-23T19:47:50.536Z,118.17
2018-11-23T19:50:19.710Z,102.80
2018-11-23T19:52:48.860Z,96.63
2018-11-23T19:55:18.419Z,87.10
2018-11-23T19:57:47.919Z,94.87
2018-11-23T20:00:18.194Z,100.12
2018-11-23T20:02:48.703Z,104.30
2018-11-23T20:05:17.966Z,82.85
2018-11-23T20:07:47.954Z,82.45
2018-11-23T20:10:19.171Z,72.12
2018-11-23T20:12:49.310Z,75.45
2018-11-23T20:15:19.243Z,72.95
2018-11-23T20:17:48.967Z,68.72
2018-11-23T20:20:18.345Z,68.55
2018-11-23T20:22:48.216Z,67.42
2018-11-23T20:25:18.378Z,64.97
2018-11-23T20:27:48.158Z,65.20
2018-11-23T20:30:18.867Z,65.72
2018-11-23T20:32:48.671Z,65.65
2018-11-23T20:35:18.882Z,64.65
2018-11-23T20:37:48.197Z,71.22
2018-11-23T20:40:23.027Z,75.22
2018-11-23T20:42:52.231Z,75.85
2018-11-23T20:45:21.386Z,68.50
2018-11-23T20:47:50.822Z,69.27
2018-11-23T20:50:20.219Z,65.55
2018-11-23T20:52:49.643Z,71.02
2018-11-23T20:55:21.828Z,68.45
2018-11-23T20:57:52.257Z,70.32
2018-11-23T21:00:21.830Z,70.62
2018-11-23T21:02:52.149Z,71.95
2018-11-23T21:05:22.055Z,65.65
2018-11-23T21:07:51.503Z,60.50
2018-11-23T21:10:25.101Z,52.23
2018-11-23T21:12:54.768Z,55.73
2018-11-23T21:15:27.805Z,61.13
2018-11-23T21:17:57.774Z,62.70
2018-11-23T21:20:26.935Z,69.50
2018-11-23T21:22:56.157Z,75.28
2018-11-23T21:25:25.336Z,66.35
2018-11-23T21:27:54.467Z,60.43
2018-11-23T21:30:25.189Z,46.92
2018-11-23T21:32:55.483Z,52.90
2018-11-23T21:35:25.021Z,46.53
2018-11-23T21:37:54.346Z,46.75
2018-11-23T21:40:23.615Z,49.45
2018-11-23T21:42:52.943Z,43.63
2018-11-23T21:45:22.172Z,48.05
2018-11-23T21:47:51.471Z,46.23
2018-11-23T21:50:25.397Z,42.35
2018-11-23T21:52:55.525Z,40.83
2018-11-23T21:55:25.434Z,40.05
2018-11-23T21:57:55.675Z,45.28
2018-11-23T22:00:25.015Z,43.90
2018-11-23T22:02:54.235Z,46.20
2018-11-23T22:05:23.664Z,44.05
2018-11-23T22:07:52.836Z,42.83
2018-11-23T22:10:22.154Z,47.08
2018-11-23T22:12:52.132Z,44.45
2018-11-23T22:15:24.942Z,42.08
2018-11-23T22:17:56.543Z,41.15
2018-11-23T22:20:32.009Z,44.50
2018-11-23T22:23:01.451Z,41.45
2018-11-23T22:25:30.666Z,41.58
2018-11-23T22:27:59.877Z,40.23
2018-11-23T22:30:31.434Z,42.45
2018-11-23T22:33:00.640Z,39.98
2018-11-23T22:35:30.560Z,45.50
2018-11-23T22:38:00.211Z,47.03
2018-11-23T22:40:29.462Z,42.58
2018-11-23T22:42:59.368Z,44.30
2018-11-23T22:45:28.628Z,43.95
2018-11-23T22:47:57.885Z,39.18
2018-11-23T22:50:26.983Z,40.12
2018-11-23T22:52:56.377Z,38.33
2018-11-23T22:55:25.590Z,41.88
2018-11-23T22:57:54.672Z,42.58
2018-11-23T23:00:32.622Z,39.38
2018-11-23T23:03:01.803Z,40.83
2018-11-23T23:05:30.967Z,41.42
2018-11-23T23:08:00.175Z,30.77
2018-11-23T23:10:29.531Z,38.92
2018-11-23T23:12:58.679Z,39.33
2018-11-23T23:15:28.111Z,43.48
2018-11-23T23:17:57.284Z,32.98
2018-11-23T23:20:26.487Z,24.75
2018-11-23T23:22:56.084Z,31.73
2018-11-23T23:25:25.132Z,15.58
2018-11-23T23:27:54.257Z,24.95
2018-11-23T23:30:23.636Z,30.65
2018-11-23T23:32:52.860Z,25.55
2018-11-23T23:35:21.887Z,35.63
2018-11-23T23:37:51.399Z,35.58
2018-11-23T23:40:20.787Z,26.05
2018-11-23T23:42:50.066Z,28.17
2018-11-23T23:45:19.604Z,33.00
2018-11-23T23:47:48.806Z,24.10
2018-11-23T23:50:19.833Z,24.10
2018-11-23T23:52:49.446Z,16.17
2018-11-23T23:55:18.412Z,25.70
2018-11-23T23:57:48.041Z,24.45
